Avoca, Iowa
Current Conditions -  °F | °C
As of 7:35 PM on Monday 24 Nov 2014 (Local Time) from KHNR Reporting Station
Overcast Overcast  
Wind Chill: 12°   Ceiling: 3000
Heat Index: 27°   Visibility: 10mi
Dew Point: 18°   Wind: 23mph
Humidity: 69%   Direction: 330°NNW
Pressure: 29.98"   Gusts: 32mph
Location:  41.48°N, 95.34°W
Report Text: KHNR 250135Z AUTO 33020G28KT 10SM OVC030 M03/M08 A2998 RMK AO2
Loading
Personal Weather Stations






























Interactive Weather Map New forecast layout! Learn more

10-Day Weather Forecast

Advertisements
Track Severe Weather on mobile